Aviation Digital Data Service (ADDS)

Output produced by METARs form (1113 UTC 24 April 2017)
found at http://www.aviationweather.gov/adds/metars/
 
WSAP 241100Z 36001KT 9000 FEW016 BKN190 27/25 Q1009
TAF WSAP 241100Z 2412/2518 30007KT 9999 FEW018CB SCT020 
     TEMPO 2505/2509 3000 TSRA FEW012CB BKN015
       
WSSL 241100Z VRB01KT 9999 FEW020 BKN250 27/24 Q1009 RMK 1030Z Q1008
TAF WSSL 241100Z 2412/2518 30007KT 9999 FEW018CB SCT020 
     TEMPO 2505/2509 3000 TSRA FEW012CB BKN015
       
WSSS 241100Z 30003KT 260V350 9999 FEW018TCU SCT070 BKN270 26/25 Q1009 NOSIG
TAF WSSS 241100Z 2412/2518 30007KT 9999 FEW018CB SCT020 
     TEMPO 2505/2509 3000 TSRA FEW012CB BKN015